sensor_id;sensor_type;location;lat;lon;timestamp;pressure;altitude;pressure_sealevel;temperature;humidity
73748;BME280;62056;52.130;5.428;2023-06-10T00:01:15;101696.06;;;23.00;40.57
73748;BME280;62056;52.130;5.428;2023-06-10T00:03:42;101702.53;;;22.95;40.53
73748;BME280;62056;52.130;5.428;2023-06-10T00:06:10;101691.25;;;22.93;40.55
73748;BME280;62056;52.130;5.428;2023-06-10T00:08:37;101696.69;;;22.93;40.16
73748;BME280;62056;52.130;5.428;2023-06-10T00:11:06;101705.88;;;22.89;40.34
73748;BME280;62056;52.130;5.428;2023-06-10T00:13:33;101708.50;;;22.85;40.77
73748;BME280;62056;52.130;5.428;2023-06-10T00:16:00;101704.91;;;22.81;40.56
73748;BME280;62056;52.130;5.428;2023-06-10T00:18:26;101700.88;;;22.75;40.49
73748;BME280;62056;52.130;5.428;2023-06-10T00:20:53;101701.59;;;22.72;40.71
73748;BME280;62056;52.130;5.428;2023-06-10T00:23:21;101699.56;;;22.69;40.60
73748;BME280;62056;52.130;5.428;2023-06-10T00:25:49;101706.47;;;22.66;40.44
73748;BME280;62056;52.130;5.428;2023-06-10T00:28:15;101705.25;;;22.63;40.49
73748;BME280;62056;52.130;5.428;2023-06-10T00:30:42;101706.28;;;22.59;40.83
73748;BME280;62056;52.130;5.428;2023-06-10T00:33:09;101703.47;;;22.55;40.39
73748;BME280;62056;52.130;5.428;2023-06-10T00:35:36;101711.16;;;22.53;40.66
73748;BME280;62056;52.130;5.428;2023-06-10T00:38:03;101711.88;;;22.50;40.76
73748;BME280;62056;52.130;5.428;2023-06-10T00:40:30;101715.69;;;22.49;40.49
73748;BME280;62056;52.130;5.428;2023-06-10T00:42:56;101706.00;;;22.48;40.50
73748;BME280;62056;52.130;5.428;2023-06-10T00:45:24;101715.59;;;22.46;40.56
73748;BME280;62056;52.130;5.428;2023-06-10T00:47:51;101713.59;;;22.42;40.28
73748;BME280;62056;52.130;5.428;2023-06-10T00:50:18;101710.78;;;22.39;40.33
73748;BME280;62056;52.130;5.428;2023-06-10T00:52:44;101720.38;;;22.36;40.42
73748;BME280;62056;52.130;5.428;2023-06-10T00:55:12;101713.75;;;22.34;40.23
73748;BME280;62056;52.130;5.428;2023-06-10T00:57:39;101717.56;;;22.33;40.29
73748;BME280;62056;52.130;5.428;2023-06-10T01:00:06;101719.41;;;22.29;40.17
73748;BME280;62056;52.130;5.428;2023-06-10T01:02:38;101717.38;;;22.26;40.54
73748;BME280;62056;52.130;5.428;2023-06-10T01:05:05;101717.72;;;22.24;40.26
73748;BME280;62056;52.130;5.428;2023-06-10T01:10:16;101721.44;;;22.19;40.21
73748;BME280;62056;52.130;5.428;2023-06-10T01:12:58;101709.28;;;22.13;40.16
73748;BME280;62056;52.130;5.428;2023-06-10T01:15:26;101709.16;;;22.10;40.24
73748;BME280;62056;52.130;5.428;2023-06-10T01:17:56;101711.75;;;22.06;40.46
73748;BME280;62056;52.130;5.428;2023-06-10T01:20:26;101707.84;;;22.03;40.21
73748;BME280;62056;52.130;5.428;2023-06-10T01:22:56;101722.50;;;22.02;40.28
73748;BME280;62056;52.130;5.428;2023-06-10T01:25:26;101718.22;;;22.01;40.14
73748;BME280;62056;52.130;5.428;2023-06-10T01:28:07;101724.34;;;21.98;40.69
73748;BME280;62056;52.130;5.428;2023-06-10T01:30:48;101724.22;;;21.95;41.00
73748;BME280;62056;52.130;5.428;2023-06-10T01:33:28;101723.00;;;21.92;40.34
73748;BME280;62056;52.130;5.428;2023-06-10T01:35:57;101720.63;;;21.91;40.08
73748;BME280;62056;52.130;5.428;2023-06-10T01:38:33;101722.88;;;21.89;40.66
73748;BME280;62056;52.130;5.428;2023-06-10T01:41:03;101718.16;;;21.86;40.58
73748;BME280;62056;52.130;5.428;2023-06-10T01:43:33;101721.19;;;21.84;40.47
73748;BME280;62056;52.130;5.428;2023-06-10T01:45:59;101715.34;;;21.82;40.37
73748;BME280;62056;52.130;5.428;2023-06-10T01:48:27;101724.94;;;21.79;40.92
73748;BME280;62056;52.130;5.428;2023-06-10T01:50:53;101717.03;;;21.74;40.40
73748;BME280;62056;52.130;5.428;2023-06-10T01:53:22;101724.38;;;21.74;40.42
73748;BME280;62056;52.130;5.428;2023-06-10T01:55:49;101719.63;;;21.71;40.44
73748;BME280;62056;52.130;5.428;2023-06-10T01:58:16;101720.31;;;21.68;40.53
73748;BME280;62056;52.130;5.428;2023-06-10T02:00:43;101720.22;;;21.64;40.89
73748;BME280;62056;52.130;5.428;2023-06-10T02:03:10;101719.31;;;21.60;40.83
73748;BME280;62056;52.130;5.428;2023-06-10T02:05:37;101724.28;;;21.58;40.87
73748;BME280;62056;52.130;5.428;2023-06-10T02:08:04;101724.97;;;21.55;41.03
73748;BME280;62056;52.130;5.428;2023-06-10T02:10:31;101726.06;;;21.54;41.22
73748;BME280;62056;52.130;5.428;2023-06-10T02:12:58;101733.28;;;21.50;41.35
73748;BME280;62056;52.130;5.428;2023-06-10T02:15:24;101724.41;;;21.49;41.19
73748;BME280;62056;52.130;5.428;2023-06-10T02:17:52;101731.59;;;21.45;41.15
73748;BME280;62056;52.130;5.428;2023-06-10T02:20:19;101720.63;;;21.41;41.33
73748;BME280;62056;52.130;5.428;2023-06-10T02:22:46;101727.19;;;21.40;41.55
73748;BME280;62056;52.130;5.428;2023-06-10T02:25:13;101729.44;;;21.38;41.51
73748;BME280;62056;52.130;5.428;2023-06-10T02:27:40;101733.63;;;21.36;41.49
73748;BME280;62056;52.130;5.428;2023-06-10T02:30:07;101737.34;;;21.31;41.57
73748;BME280;62056;52.130;5.428;2023-06-10T02:32:36;101743.41;;;21.28;41.91
73748;BME280;62056;52.130;5.428;2023-06-10T02:35:03;101742.97;;;21.26;41.81
73748;BME280;62056;52.130;5.428;2023-06-10T02:37:30;101745.53;;;21.22;42.00
73748;BME280;62056;52.130;5.428;2023-06-10T02:39:56;101740.81;;;21.19;42.10
73748;BME280;62056;52.130;5.428;2023-06-10T02:42:23;101744.19;;;21.16;42.43
73748;BME280;62056;52.130;5.428;2023-06-10T02:44:49;101731.69;;;21.12;42.32
73748;BME280;62056;52.130;5.428;2023-06-10T02:47:16;101738.88;;;21.08;42.39
73748;BME280;62056;52.130;5.428;2023-06-10T02:49:43;101743.84;;;21.06;42.60
73748;BME280;62056;52.130;5.428;2023-06-10T02:52:10;101750.72;;;21.03;42.69
73748;BME280;62056;52.130;5.428;2023-06-10T02:54:37;101748.69;;;21.00;42.64
73748;BME280;62056;52.130;5.428;2023-06-10T02:57:04;101752.03;;;20.97;43.00
73748;BME280;62056;52.130;5.428;2023-06-10T02:59:32;101747.31;;;20.94;42.89
73748;BME280;62056;52.130;5.428;2023-06-10T03:01:59;101744.50;;;20.90;43.00
73748;BME280;62056;52.130;5.428;2023-06-10T03:04:27;101745.50;;;20.86;43.20
73748;BME280;62056;52.130;5.428;2023-06-10T03:06:55;101750.78;;;20.82;43.24
73748;BME280;62056;52.130;5.428;2023-06-10T03:09:22;101743.00;;;20.80;43.32
73748;BME280;62056;52.130;5.428;2023-06-10T03:11:48;101744.47;;;20.78;43.35
73748;BME280;62056;52.130;5.428;2023-06-10T03:14:15;101751.31;;;20.75;43.58
73748;BME280;62056;52.130;5.428;2023-06-10T03:16:42;101747.72;;;20.71;43.50
73748;BME280;62056;52.130;5.428;2023-06-10T03:19:10;101742.94;;;20.68;43.61
73748;BME280;62056;52.130;5.428;2023-06-10T03:21:37;101749.03;;;20.65;43.93
73748;BME280;62056;52.130;5.428;2023-06-10T03:24:04;101745.88;;;20.63;43.84
73748;BME280;62056;52.130;5.428;2023-06-10T03:26:31;101753.84;;;20.59;43.88
73748;BME280;62056;52.130;5.428;2023-06-10T03:28:58;101757.19;;;20.56;44.11
73748;BME280;62056;52.130;5.428;2023-06-10T03:31:24;101758.63;;;20.54;44.21
73748;BME280;62056;52.130;5.428;2023-06-10T03:33:51;101758.53;;;20.50;44.22
73748;BME280;62056;52.130;5.428;2023-06-10T03:36:18;101753.75;;;20.47;44.32
73748;BME280;62056;52.130;5.428;2023-06-10T03:38:44;101749.81;;;20.45;44.71
73748;BME280;62056;52.130;5.428;2023-06-10T03:41:43;101758.56;;;20.41;45.79
73748;BME280;62056;52.130;5.428;2023-06-10T03:44:10;101765.44;;;20.39;44.93
73748;BME280;62056;52.130;5.428;2023-06-10T03:46:37;101763.88;;;20.38;44.91
73748;BME280;62056;52.130;5.428;2023-06-10T03:49:04;101760.72;;;20.36;44.80
73748;BME280;62056;52.130;5.428;2023-06-10T03:51:31;101767.56;;;20.33;45.22
73748;BME280;62056;52.130;5.428;2023-06-10T03:53:57;101764.41;;;20.31;45.26
73748;BME280;62056;52.130;5.428;2023-06-10T03:56:24;101763.94;;;20.29;45.57
73748;BME280;62056;52.130;5.428;2023-06-10T03:58:52;101768.06;;;20.27;45.59
73748;BME280;62056;52.130;5.428;2023-06-10T04:01:18;101770.78;;;20.27;45.56
73748;BME280;62056;52.130;5.428;2023-06-10T04:03:47;101767.59;;;20.25;45.61
73748;BME280;62056;52.130;5.428;2023-06-10T04:06:15;101768.28;;;20.21;45.92
73748;BME280;62056;52.130;5.428;2023-06-10T04:08:42;101767.81;;;20.19;45.76
73748;BME280;62056;52.130;5.428;2023-06-10T04:11:09;101763.06;;;20.16;46.14
73748;BME280;62056;52.130;5.428;2023-06-10T04:13:36;101770.38;;;20.16;46.14
73748;BME280;62056;52.130;5.428;2023-06-10T04:16:03;101770.69;;;20.14;46.67
73748;BME280;62056;52.130;5.428;2023-06-10T04:18:29;101771.84;;;20.13;46.74
73748;BME280;62056;52.130;5.428;2023-06-10T04:20:56;101778.69;;;20.11;46.76
73748;BME280;62056;52.130;5.428;2023-06-10T04:23:23;101776.63;;;20.08;47.09
73748;BME280;62056;52.130;5.428;2023-06-10T04:25:50;101775.84;;;20.07;47.12
73748;BME280;62056;52.130;5.428;2023-06-10T04:28:17;101782.81;;;20.08;47.16
73748;BME280;62056;52.130;5.428;2023-06-10T04:30:43;101785.03;;;20.06;47.53
73748;BME280;62056;52.130;5.428;2023-06-10T04:33:11;101786.19;;;20.05;47.72
73748;BME280;62056;52.130;5.428;2023-06-10T04:35:38;101796.19;;;20.05;47.74
73748;BME280;62056;52.130;5.428;2023-06-10T04:38:04;101784.94;;;20.02;48.03
73748;BME280;62056;52.130;5.428;2023-06-10T04:40:31;101786.81;;;20.02;48.27
73748;BME280;62056;52.130;5.428;2023-06-10T04:42:58;101790.31;;;20.02;48.50
73748;BME280;62056;52.130;5.428;2023-06-10T04:45:25;101787.28;;;20.04;48.43
73748;BME280;62056;52.130;5.428;2023-06-10T04:47:51;101798.53;;;20.06;48.56
73748;BME280;62056;52.130;5.428;2023-06-10T04:50:18;101793.16;;;20.06;48.65
73748;BME280;62056;52.130;5.428;2023-06-10T04:52:45;101806.63;;;20.06;48.58
73748;BME280;62056;52.130;5.428;2023-06-10T04:55:11;101794.75;;;20.07;48.70
73748;BME280;62056;52.130;5.428;2023-06-10T04:57:38;101793.59;;;20.08;48.86
73748;BME280;62056;52.130;5.428;2023-06-10T05:00:05;101795.19;;;20.09;48.97
73748;BME280;62056;52.130;5.428;2023-06-10T05:02:32;101792.81;;;20.08;49.21
73748;BME280;62056;52.130;5.428;2023-06-10T05:04:59;101808.38;;;20.11;49.37
73748;BME280;62056;52.130;5.428;2023-06-10T05:07:26;101795.34;;;20.13;49.70
73748;BME280;62056;52.130;5.428;2023-06-10T05:09:52;101802.00;;;20.15;49.20
73748;BME280;62056;52.130;5.428;2023-06-10T05:12:19;101801.31;;;20.18;49.62
73748;BME280;62056;52.130;5.428;2023-06-10T05:14:46;101806.41;;;20.20;49.77
73748;BME280;62056;52.130;5.428;2023-06-10T05:17:13;101801.47;;;20.22;49.69
73748;BME280;62056;52.130;5.428;2023-06-10T05:19:39;101803.53;;;20.25;49.65
73748;BME280;62056;52.130;5.428;2023-06-10T05:22:09;101795.53;;;20.29;49.61
73748;BME280;62056;52.130;5.428;2023-06-10T05:24:35;101793.28;;;20.31;50.14
73748;BME280;62056;52.130;5.428;2023-06-10T05:27:02;101793.13;;;20.36;51.29
73748;BME280;62056;52.130;5.428;2023-06-10T05:29:29;101802.25;;;20.43;52.05
73748;BME280;62056;52.130;5.428;2023-06-10T05:31:55;101795.66;;;20.53;52.85
73748;BME280;62056;52.130;5.428;2023-06-10T05:34:24;101797.69;;;20.65;53.42
73748;BME280;62056;52.130;5.428;2023-06-10T05:36:50;101798.66;;;20.81;53.78
73748;BME280;62056;52.130;5.428;2023-06-10T05:39:17;101803.53;;;21.00;54.13
73748;BME280;62056;52.130;5.428;2023-06-10T05:41:44;101808.44;;;21.19;53.98
73748;BME280;62056;52.130;5.428;2023-06-10T05:44:11;101804.50;;;21.41;54.07
73748;BME280;62056;52.130;5.428;2023-06-10T05:46:39;101811.44;;;21.63;53.59
73748;BME280;62056;52.130;5.428;2023-06-10T05:49:06;101804.34;;;21.83;53.71
73748;BME280;62056;52.130;5.428;2023-06-10T05:51:33;101804.53;;;22.03;53.02
73748;BME280;62056;52.130;5.428;2023-06-10T05:53:59;101813.69;;;22.23;52.67
73748;BME280;62056;52.130;5.428;2023-06-10T05:56:26;101804.13;;;22.41;52.67
73748;BME280;62056;52.130;5.428;2023-06-10T05:58:53;101806.91;;;22.57;51.83
73748;BME280;62056;52.130;5.428;2023-06-10T06:01:20;101808.53;;;22.74;51.86
73748;BME280;62056;52.130;5.428;2023-06-10T06:03:46;101806.66;;;22.91;50.99
73748;BME280;62056;52.130;5.428;2023-06-10T06:06:13;101797.44;;;23.08;50.94
73748;BME280;62056;52.130;5.428;2023-06-10T06:08:40;101802.44;;;23.21;50.31
73748;BME280;62056;52.130;5.428;2023-06-10T06:11:07;101801.63;;;23.37;49.87
73748;BME280;62056;52.130;5.428;2023-06-10T06:13:33;101800.06;;;23.52;49.77
73748;BME280;62056;52.130;5.428;2023-06-10T06:16:00;101803.09;;;23.66;48.86
73748;BME280;62056;52.130;5.428;2023-06-10T06:18:27;101803.47;;;23.80;48.96
73748;BME280;62056;52.130;5.428;2023-06-10T06:20:54;101803.34;;;23.93;48.35
73748;BME280;62056;52.130;5.428;2023-06-10T06:23:20;101803.69;;;24.07;48.05
73748;BME280;62056;52.130;5.428;2023-06-10T06:25:47;101793.47;;;24.20;47.89
73748;BME280;62056;52.130;5.428;2023-06-10T06:28:13;101800.63;;;24.28;47.36
73748;BME280;62056;52.130;5.428;2023-06-10T06:30:40;101794.88;;;24.33;47.00
73748;BME280;62056;52.130;5.428;2023-06-10T06:33:07;101796.69;;;24.45;46.87
73748;BME280;62056;52.130;5.428;2023-06-10T06:35:34;101804.28;;;24.55;46.91
73748;BME280;62056;52.130;5.428;2023-06-10T06:38:01;101792.91;;;24.69;46.59
73748;BME280;62056;52.130;5.428;2023-06-10T06:40:28;101795.09;;;24.83;46.72
73748;BME280;62056;52.130;5.428;2023-06-10T06:42:54;101796.88;;;24.95;46.45
73748;BME280;62056;52.130;5.428;2023-06-10T06:45:21;101803.41;;;25.13;46.58
73748;BME280;62056;52.130;5.428;2023-06-10T06:47:48;101800.91;;;25.24;45.92
73748;BME280;62056;52.130;5.428;2023-06-10T06:50:15;101793.75;;;25.39;46.07
73748;BME280;62056;52.130;5.428;2023-06-10T06:52:42;101796.28;;;25.51;45.87
73748;BME280;62056;52.130;5.428;2023-06-10T06:55:09;101801.44;;;25.56;45.12
73748;BME280;62056;52.130;5.428;2023-06-10T06:57:36;101798.53;;;25.72;44.85
73748;BME280;62056;52.130;5.428;2023-06-10T07:00:03;101798.75;;;25.87;44.82
73748;BME280;62056;52.130;5.428;2023-06-10T07:02:31;101804.06;;;26.02;44.39
73748;BME280;62056;52.130;5.428;2023-06-10T07:04:59;101798.69;;;26.10;41.48
73748;BME280;62056;52.130;5.428;2023-06-10T07:07:27;101799.47;;;26.10;43.44
73748;BME280;62056;52.130;5.428;2023-06-10T07:09:54;101806.56;;;26.18;43.74
73748;BME280;62056;52.130;5.428;2023-06-10T07:12:20;101806.69;;;26.25;42.84
73748;BME280;62056;52.130;5.428;2023-06-10T07:14:50;101812.22;;;26.33;42.79
73748;BME280;62056;52.130;5.428;2023-06-10T07:17:17;101806.44;;;26.38;42.66
73748;BME280;62056;52.130;5.428;2023-06-10T07:19:47;101806.44;;;26.38;41.58
73748;BME280;62056;52.130;5.428;2023-06-10T07:22:14;101810.03;;;26.45;41.88
73748;BME280;62056;52.130;5.428;2023-06-10T07:24:41;101812.75;;;26.45;41.62
73748;BME280;62056;52.130;5.428;2023-06-10T07:27:08;101812.84;;;26.53;41.91
73748;BME280;62056;52.130;5.428;2023-06-10T07:29:36;101815.63;;;26.56;41.49
73748;BME280;62056;52.130;5.428;2023-06-10T07:32:04;101816.50;;;26.64;41.15
73748;BME280;62056;52.130;5.428;2023-06-10T07:34:30;101807.59;;;26.71;40.96
73748;BME280;62056;52.130;5.428;2023-06-10T07:36:57;101809.91;;;26.65;40.98
73748;BME280;62056;52.130;5.428;2023-06-10T07:39:24;101804.84;;;26.67;40.46
73748;BME280;62056;52.130;5.428;2023-06-10T07:41:50;101805.69;;;26.71;40.97
73748;BME280;62056;52.130;5.428;2023-06-10T07:44:20;101811.03;;;26.64;40.51
73748;BME280;62056;52.130;5.428;2023-06-10T07:46:46;101812.56;;;26.61;40.33
73748;BME280;62056;52.130;5.428;2023-06-10T07:49:13;101816.44;;;26.60;40.49
73748;BME280;62056;52.130;5.428;2023-06-10T07:51:40;101814.53;;;26.61;40.62
73748;BME280;62056;52.130;5.428;2023-06-10T07:54:07;101825.44;;;26.61;40.63
73748;BME280;62056;52.130;5.428;2023-06-10T07:56:34;101812.09;;;26.56;39.94
73748;BME280;62056;52.130;5.428;2023-06-10T07:59:00;101821.06;;;26.56;40.11
73748;BME280;62056;52.130;5.428;2023-06-10T08:01:27;101825.69;;;26.52;39.67
73748;BME280;62056;52.130;5.428;2023-06-10T08:03:54;101825.72;;;26.56;39.96
73748;BME280;62056;52.130;5.428;2023-06-10T08:06:21;101823.00;;;26.56;40.09
73748;BME280;62056;52.130;5.428;2023-06-10T08:08:48;101824.94;;;26.55;39.36
73748;BME280;62056;52.130;5.428;2023-06-10T08:11:14;101820.09;;;26.41;40.25
73748;BME280;62056;52.130;5.428;2023-06-10T08:13:41;101826.38;;;26.45;40.15
73748;BME280;62056;52.130;5.428;2023-06-10T08:16:07;101819.03;;;26.50;39.99
73748;BME280;62056;52.130;5.428;2023-06-10T08:18:34;101815.16;;;26.51;40.26
73748;BME280;62056;52.130;5.428;2023-06-10T08:21:01;101820.66;;;26.54;39.91
73748;BME280;62056;52.130;5.428;2023-06-10T08:23:28;101813.69;;;26.57;39.83
73748;BME280;62056;52.130;5.428;2023-06-10T08:25:55;101815.31;;;26.61;40.20
73748;BME280;62056;52.130;5.428;2023-06-10T08:28:22;101813.44;;;26.69;40.13
73748;BME280;62056;52.130;5.428;2023-06-10T08:30:49;101811.16;;;26.75;40.20
73748;BME280;62056;52.130;5.428;2023-06-10T08:33:16;101814.34;;;26.80;39.54
73748;BME280;62056;52.130;5.428;2023-06-10T08:35:42;101815.53;;;26.83;38.49
73748;BME280;62056;52.130;5.428;2023-06-10T08:38:09;101820.66;;;26.88;39.36
73748;BME280;62056;52.130;5.428;2023-06-10T08:40:36;101817.19;;;26.95;39.24
73748;BME280;62056;52.130;5.428;2023-06-10T08:45:52;101811.09;;;27.09;38.22
73748;BME280;62056;52.130;5.428;2023-06-10T08:48:25;101818.53;;;27.12;38.80
73748;BME280;62056;52.130;5.428;2023-06-10T08:50:53;101814.28;;;27.18;38.90
73748;BME280;62056;52.130;5.428;2023-06-10T08:53:20;101817.44;;;27.20;38.93
73748;BME280;62056;52.130;5.428;2023-06-10T08:55:51;101815.59;;;27.28;38.47
73748;BME280;62056;52.130;5.428;2023-06-10T08:58:20;101809.75;;;27.33;38.43
73748;BME280;62056;52.130;5.428;2023-06-10T09:00:47;101820.34;;;27.41;38.57
73748;BME280;62056;52.130;5.428;2023-06-10T09:03:41;101820.38;;;27.45;38.60
73748;BME280;62056;52.130;5.428;2023-06-10T09:06:08;101814.56;;;27.47;38.50
73748;BME280;62056;52.130;5.428;2023-06-10T09:08:36;101818.50;;;27.53;38.19
73748;BME280;62056;52.130;5.428;2023-06-10T09:11:03;101813.44;;;27.58;37.40
73748;BME280;62056;52.130;5.428;2023-06-10T09:13:30;101812.72;;;27.61;37.31
73748;BME280;62056;52.130;5.428;2023-06-10T09:15:56;101809.28;;;27.75;37.80
73748;BME280;62056;52.130;5.428;2023-06-10T09:18:28;101811.69;;;27.84;37.36
73748;BME280;62056;52.130;5.428;2023-06-10T09:20:55;101816.84;;;27.96;36.94
73748;BME280;62056;52.130;5.428;2023-06-10T09:23:21;101820.41;;;28.00;37.08
73748;BME280;62056;52.130;5.428;2023-06-10T09:25:56;101814.91;;;28.04;36.84
73748;BME280;62056;52.130;5.428;2023-06-10T09:28:24;101807.94;;;28.10;36.66
73748;BME280;62056;52.130;5.428;2023-06-10T09:31:02;101809.16;;;28.20;35.88
73748;BME280;62056;52.130;5.428;2023-06-10T09:33:33;101804.50;;;28.28;36.34
73748;BME280;62056;52.130;5.428;2023-06-10T09:36:03;101806.50;;;28.38;36.46
73748;BME280;62056;52.130;5.428;2023-06-10T09:38:31;101809.63;;;28.47;36.06
73748;BME280;62056;52.130;5.428;2023-06-10T09:41:03;101810.06;;;28.49;34.34
73748;BME280;62056;52.130;5.428;2023-06-10T09:43:41;101812.03;;;28.56;34.36
73748;BME280;62056;52.130;5.428;2023-06-10T09:46:16;101802.28;;;28.55;32.46
73748;BME280;62056;52.130;5.428;2023-06-10T09:48:45;101802.66;;;28.64;34.65
73748;BME280;62056;52.130;5.428;2023-06-10T09:51:13;101802.69;;;28.68;34.54
73748;BME280;62056;52.130;5.428;2023-06-10T09:53:40;101786.28;;;28.78;34.30
73748;BME280;62056;52.130;5.428;2023-06-10T09:56:07;101800.78;;;28.86;33.98
73748;BME280;62056;52.130;5.428;2023-06-10T09:58:38;101802.31;;;28.91;34.07
73748;BME280;62056;52.130;5.428;2023-06-10T10:01:06;101802.72;;;28.93;33.64
73748;BME280;62056;52.130;5.428;2023-06-10T10:03:44;101807.81;;;29.01;33.27
73748;BME280;62056;52.130;5.428;2023-06-10T10:06:12;101806.25;;;29.08;33.09
73748;BME280;62056;52.130;5.428;2023-06-10T10:08:40;101800.81;;;29.11;32.84
73748;BME280;62056;52.130;5.428;2023-06-10T10:11:07;101795.75;;;29.17;32.55
73748;BME280;62056;52.130;5.428;2023-06-10T10:13:34;101798.84;;;29.26;32.76
73748;BME280;62056;52.130;5.428;2023-06-10T10:16:06;101796.91;;;29.30;31.98
73748;BME280;62056;52.130;5.428;2023-06-10T10:18:39;101797.66;;;29.41;31.88
73748;BME280;62056;52.130;5.428;2023-06-10T10:21:12;101788.66;;;29.41;31.02
73748;BME280;62056;52.130;5.428;2023-06-10T10:24:02;101787.47;;;29.49;31.37
73748;BME280;62056;52.130;5.428;2023-06-10T10:26:31;101781.22;;;29.52;30.53
73748;BME280;62056;52.130;5.428;2023-06-10T10:29:23;101790.19;;;29.63;31.61
73748;BME280;62056;52.130;5.428;2023-06-10T10:31:51;101785.88;;;29.62;30.74
73748;BME280;62056;52.130;5.428;2023-06-10T10:34:30;101792.53;;;29.65;29.91
73748;BME280;62056;52.130;5.428;2023-06-10T10:37:01;101781.97;;;29.63;30.85
73748;BME280;62056;52.130;5.428;2023-06-10T10:39:28;101781.97;;;29.67;30.28
73748;BME280;62056;52.130;5.428;2023-06-10T10:41:56;101788.22;;;29.75;30.51
73748;BME280;62056;52.130;5.428;2023-06-10T10:44:24;101779.22;;;29.81;30.37
73748;BME280;62056;52.130;5.428;2023-06-10T10:46:53;101774.88;;;29.91;30.06
73748;BME280;62056;52.130;5.428;2023-06-10T10:49:22;101775.25;;;29.93;29.32
73748;BME280;62056;52.130;5.428;2023-06-10T10:51:56;101781.09;;;29.99;28.98
73748;BME280;62056;52.130;5.428;2023-06-10T10:54:34;101772.06;;;30.09;28.16
73748;BME280;62056;52.130;5.428;2023-06-10T10:57:19;101776.72;;;30.16;27.23
73748;BME280;62056;52.130;5.428;2023-06-10T11:02:31;101778.25;;;30.27;28.25
73748;BME280;62056;52.130;5.428;2023-06-10T11:05:00;101766.47;;;30.34;28.01
73748;BME280;62056;52.130;5.428;2023-06-10T11:07:30;101769.59;;;30.40;26.74
73748;BME280;62056;52.130;5.428;2023-06-10T11:10:11;101773.03;;;30.48;27.69
73748;BME280;62056;52.130;5.428;2023-06-10T11:12:49;101766.72;;;30.54;26.41
73748;BME280;62056;52.130;5.428;2023-06-10T11:15:22;101765.09;;;30.64;27.56
73748;BME280;62056;52.130;5.428;2023-06-10T11:18:15;101767.38;;;30.73;26.72
73748;BME280;62056;52.130;5.428;2023-06-10T11:31:23;101748.06;;;30.91;26.62
73748;BME280;62056;52.130;5.428;2023-06-10T11:34:01;101750.75;;;30.98;26.46
73748;BME280;62056;52.130;5.428;2023-06-10T11:36:30;101754.63;;;31.04;27.20
73748;BME280;62056;52.130;5.428;2023-06-10T11:38:59;101746.44;;;31.00;26.40
73748;BME280;62056;52.130;5.428;2023-06-10T11:41:28;101739.72;;;31.05;26.30
73748;BME280;62056;52.130;5.428;2023-06-10T11:44:03;101751.44;;;31.13;26.53
73748;BME280;62056;52.130;5.428;2023-06-10T11:46:30;101735.31;;;31.15;26.22
73748;BME280;62056;52.130;5.428;2023-06-10T11:48:58;101741.91;;;31.21;25.89
73748;BME280;62056;52.130;5.428;2023-06-10T11:51:29;101732.16;;;31.16;26.01
73748;BME280;62056;52.130;5.428;2023-06-10T11:53:56;101733.28;;;31.19;26.18
73748;BME280;62056;52.130;5.428;2023-06-10T11:56:25;101734.84;;;31.23;26.19
73748;BME280;62056;52.130;5.428;2023-06-10T11:58:55;101730.84;;;31.32;25.92
73748;BME280;62056;52.130;5.428;2023-06-10T12:01:23;101722.50;;;31.39;26.04
73748;BME280;62056;52.130;5.428;2023-06-10T12:04:02;101731.13;;;31.44;25.42
73748;BME280;62056;52.130;5.428;2023-06-10T12:06:49;101724.00;;;31.47;25.58
73748;BME280;62056;52.130;5.428;2023-06-10T12:09:20;101733.09;;;31.44;25.69
73748;BME280;62056;52.130;5.428;2023-06-10T12:15:00;101723.53;;;31.56;24.75
73748;BME280;62056;52.130;5.428;2023-06-10T12:20:05;101711.66;;;31.62;25.43
73748;BME280;62056;52.130;5.428;2023-06-10T12:22:39;101705.75;;;31.64;25.01
73748;BME280;62056;52.130;5.428;2023-06-10T12:25:08;101712.38;;;31.70;25.49
73748;BME280;62056;52.130;5.428;2023-06-10T12:27:37;101706.88;;;31.70;25.06
73748;BME280;62056;52.130;5.428;2023-06-10T12:30:06;101699.84;;;31.65;24.35
73748;BME280;62056;52.130;5.428;2023-06-10T12:32:44;101697.88;;;31.66;24.33
73748;BME280;62056;52.130;5.428;2023-06-10T12:35:17;101702.56;;;31.69;24.69
73748;BME280;62056;52.130;5.428;2023-06-10T12:37:59;101703.69;;;31.75;23.86
73748;BME280;62056;52.130;5.428;2023-06-10T12:40:29;101707.97;;;31.76;24.72
73748;BME280;62056;52.130;5.428;2023-06-10T12:42:59;101707.09;;;31.83;24.79
73748;BME280;62056;52.130;5.428;2023-06-10T12:45:32;101701.50;;;31.90;24.19
73748;BME280;62056;52.130;5.428;2023-06-10T12:48:22;101708.13;;;31.96;23.95
73748;BME280;62056;52.130;5.428;2023-06-10T12:50:54;101699.50;;;31.94;24.69
73748;BME280;62056;52.130;5.428;2023-06-10T12:53:23;101702.56;;;32.00;24.64
73748;BME280;62056;52.130;5.428;2023-06-10T12:55:50;101698.53;;;32.08;24.58
73748;BME280;62056;52.130;5.428;2023-06-10T12:58:19;101696.47;;;32.16;24.54
73748;BME280;62056;52.130;5.428;2023-06-10T13:00:45;101699.22;;;32.16;23.35
73748;BME280;62056;52.130;5.428;2023-06-10T13:03:13;101696.41;;;32.19;24.05
73748;BME280;62056;52.130;5.428;2023-06-10T13:05:39;101689.72;;;32.20;24.02
73748;BME280;62056;52.130;5.428;2023-06-10T13:08:09;101697.19;;;32.20;23.67
73748;BME280;62056;52.130;5.428;2023-06-10T13:10:39;101697.97;;;32.20;23.99
73748;BME280;62056;52.130;5.428;2023-06-10T13:13:06;101692.78;;;32.26;24.03
73748;BME280;62056;52.130;5.428;2023-06-10T13:15:36;101690.81;;;32.26;23.95
73748;BME280;62056;52.130;5.428;2023-06-10T13:18:09;101689.53;;;32.31;23.73
73748;BME280;62056;52.130;5.428;2023-06-10T13:20:36;101689.09;;;32.36;23.65
73748;BME280;62056;52.130;5.428;2023-06-10T13:23:03;101689.03;;;32.40;23.88